sensor_id;sensor_type;location;lat;lon;timestamp;P1;durP1;ratioP1;P2;durP2;ratioP2
28296;SDS011;62078;49.366;8.172;2023-08-06T08:46:47;0.38;;;0.20;;
28296;SDS011;62078;49.366;8.172;2023-08-06T08:49:14;0.40;;;0.10;;
28296;SDS011;62078;49.366;8.172;2023-08-06T08:51:40;0.95;;;0.10;;
28296;SDS011;62078;49.366;8.172;2023-08-06T08:54:07;0.38;;;0.10;;
28296;SDS011;62078;49.366;8.172;2023-08-06T08:56:33;0.57;;;0.30;;
28296;SDS011;62078;49.366;8.172;2023-08-06T08:58:59;0.40;;;0.20;;
28296;SDS011;62078;49.366;8.172;2023-08-06T09:01:25;0.47;;;0.22;;
28296;SDS011;62078;49.366;8.172;2023-08-06T09:03:53;3.03;;;0.50;;
28296;SDS011;62078;49.366;8.172;2023-08-06T09:06:20;3.35;;;0.70;;
28296;SDS011;62078;49.366;8.172;2023-08-06T09:09:12;3.22;;;0.50;;
28296;SDS011;62078;49.366;8.172;2023-08-06T09:11:42;0.85;;;0.40;;
28296;SDS011;62078;49.366;8.172;2023-08-06T09:14:09;3.15;;;0.50;;
28296;SDS011;62078;49.366;8.172;2023-08-06T09:16:36;8.25;;;0.95;;
28296;SDS011;62078;49.366;8.172;2023-08-06T09:19:11;3.05;;;0.50;;
28296;SDS011;62078;49.366;8.172;2023-08-06T09:24:11;3.75;;;0.60;;
28296;SDS011;62078;49.366;8.172;2023-08-06T09:26:38;2.58;;;0.17;;
28296;SDS011;62078;49.366;8.172;2023-08-06T09:29:07;0.98;;;0.13;;
28296;SDS011;62078;49.366;8.172;2023-08-06T09:31:40;0.85;;;0.30;;
28296;SDS011;62078;49.366;8.172;2023-08-06T09:34:10;1.38;;;0.30;;
28296;SDS011;62078;49.366;8.172;2023-08-06T09:36:39;0.50;;;0.13;;
28296;SDS011;62078;49.366;8.172;2023-08-06T09:39:12;0.30;;;0.10;;
28296;SDS011;62078;49.366;8.172;2023-08-06T09:41:39;1.67;;;0.20;;
28296;SDS011;62078;49.366;8.172;2023-08-06T09:44:05;1.85;;;0.32;;
28296;SDS011;62078;49.366;8.172;2023-08-06T09:46:40;1.30;;;0.30;;
28296;SDS011;62078;49.366;8.172;2023-08-06T09:49:05;0.63;;;0.20;;
28296;SDS011;62078;49.366;8.172;2023-08-06T09:51:33;0.95;;;0.20;;
28296;SDS011;62078;49.366;8.172;2023-08-06T09:54:00;1.55;;;0.20;;
28296;SDS011;62078;49.366;8.172;2023-08-06T09:56:26;0.32;;;0.10;;
28296;SDS011;62078;49.366;8.172;2023-08-06T09:58:53;1.17;;;0.40;;
28296;SDS011;62078;49.366;8.172;2023-08-06T10:01:20;0.95;;;0.30;;
28296;SDS011;62078;49.366;8.172;2023-08-06T10:03:47;0.70;;;0.25;;
28296;SDS011;62078;49.366;8.172;2023-08-06T10:06:16;0.98;;;0.20;;
28296;SDS011;62078;49.366;8.172;2023-08-06T10:08:42;0.52;;;0.30;;
28296;SDS011;62078;49.366;8.172;2023-08-06T10:11:08;1.17;;;0.20;;
28296;SDS011;62078;49.366;8.172;2023-08-06T10:13:35;0.85;;;0.20;;
28296;SDS011;62078;49.366;8.172;2023-08-06T10:16:02;1.75;;;0.28;;
28296;SDS011;62078;49.366;8.172;2023-08-06T10:18:29;0.55;;;0.20;;
28296;SDS011;62078;49.366;8.172;2023-08-06T10:20:56;0.32;;;0.13;;
28296;SDS011;62078;49.366;8.172;2023-08-06T10:23:21;0.77;;;0.17;;
28296;SDS011;62078;49.366;8.172;2023-08-06T10:25:59;0.10;;;0.10;;
28296;SDS011;62078;49.366;8.172;2023-08-06T10:28:33;1.23;;;0.17;;
28296;SDS011;62078;49.366;8.172;2023-08-06T10:31:01;0.30;;;0.22;;
28296;SDS011;62078;49.366;8.172;2023-08-06T10:33:39;0.30;;;0.10;;
28296;SDS011;62078;49.366;8.172;2023-08-06T10:36:10;0.60;;;0.15;;
28296;SDS011;62078;49.366;8.172;2023-08-06T10:38:43;0.82;;;0.30;;
28296;SDS011;62078;49.366;8.172;2023-08-06T10:41:23;1.33;;;0.30;;
28296;SDS011;62078;49.366;8.172;2023-08-06T10:44:05;1.08;;;0.20;;
28296;SDS011;62078;49.366;8.172;2023-08-06T10:46:34;0.38;;;0.17;;
28296;SDS011;62078;49.366;8.172;2023-08-06T10:49:01;0.35;;;0.10;;
28296;SDS011;62078;49.366;8.172;2023-08-06T10:51:27;0.35;;;0.17;;
28296;SDS011;62078;49.366;8.172;2023-08-06T10:53:53;0.63;;;0.30;;
28296;SDS011;62078;49.366;8.172;2023-08-06T10:56:19;1.45;;;0.25;;
28296;SDS011;62078;49.366;8.172;2023-08-06T10:58:50;0.82;;;0.20;;
28296;SDS011;62078;49.366;8.172;2023-08-06T11:01:18;0.50;;;0.20;;
28296;SDS011;62078;49.366;8.172;2023-08-06T11:03:45;4.88;;;0.52;;
28296;SDS011;62078;49.366;8.172;2023-08-06T11:06:16;0.90;;;0.20;;
28296;SDS011;62078;49.366;8.172;2023-08-06T11:08:53;4.03;;;0.35;;
28296;SDS011;62078;49.366;8.172;2023-08-06T11:11:19;0.30;;;0.20;;
28296;SDS011;62078;49.366;8.172;2023-08-06T11:13:46;1.27;;;0.20;;
28296;SDS011;62078;49.366;8.172;2023-08-06T11:16:17;0.57;;;0.30;;
28296;SDS011;62078;49.366;8.172;2023-08-06T11:18:45;0.75;;;0.30;;
28296;SDS011;62078;49.366;8.172;2023-08-06T11:21:12;1.40;;;0.40;;
28296;SDS011;62078;49.366;8.172;2023-08-06T11:23:38;0.40;;;0.20;;
28296;SDS011;62078;49.366;8.172;2023-08-06T11:26:05;0.65;;;0.30;;
28296;SDS011;62078;49.366;8.172;2023-08-06T11:28:31;0.45;;;0.30;;
28296;SDS011;62078;49.366;8.172;2023-08-06T11:30:57;0.73;;;0.30;;
28296;SDS011;62078;49.366;8.172;2023-08-06T11:33:26;1.48;;;0.45;;
28296;SDS011;62078;49.366;8.172;2023-08-06T11:35:56;0.85;;;0.40;;
28296;SDS011;62078;49.366;8.172;2023-08-06T11:38:29;1.27;;;0.47;;
28296;SDS011;62078;49.366;8.172;2023-08-06T11:40:55;1.23;;;0.43;;
28296;SDS011;62078;49.366;8.172;2023-08-06T11:43:21;1.90;;;0.40;;
28296;SDS011;62078;49.366;8.172;2023-08-06T11:45:51;1.48;;;0.40;;
28296;SDS011;62078;49.366;8.172;2023-08-06T11:48:18;0.77;;;0.40;;
28296;SDS011;62078;49.366;8.172;2023-08-06T11:50:45;0.60;;;0.20;;
28296;SDS011;62078;49.366;8.172;2023-08-06T11:53:14;2.17;;;0.40;;
28296;SDS011;62078;49.366;8.172;2023-08-06T11:55:40;4.25;;;0.70;;
28296;SDS011;62078;49.366;8.172;2023-08-06T11:58:07;1.90;;;0.70;;
28296;SDS011;62078;49.366;8.172;2023-08-06T12:00:34;5.82;;;1.02;;
28296;SDS011;62078;49.366;8.172;2023-08-06T12:03:01;5.07;;;0.70;;
28296;SDS011;62078;49.366;8.172;2023-08-06T12:05:30;2.33;;;0.77;;
28296;SDS011;62078;49.366;8.172;2023-08-06T12:07:58;1.73;;;0.57;;
28296;SDS011;62078;49.366;8.172;2023-08-06T12:10:26;5.05;;;0.77;;
28296;SDS011;62078;49.366;8.172;2023-08-06T12:12:53;4.03;;;0.52;;
28296;SDS011;62078;49.366;8.172;2023-08-06T12:15:19;1.50;;;0.43;;
28296;SDS011;62078;49.366;8.172;2023-08-06T12:17:45;1.40;;;0.60;;
28296;SDS011;62078;49.366;8.172;2023-08-06T12:20:11;1.08;;;0.57;;
28296;SDS011;62078;49.366;8.172;2023-08-06T12:22:37;3.38;;;0.45;;
28296;SDS011;62078;49.366;8.172;2023-08-06T12:25:06;3.67;;;0.77;;
28296;SDS011;62078;49.366;8.172;2023-08-06T12:27:34;7.25;;;0.90;;
28296;SDS011;62078;49.366;8.172;2023-08-06T12:30:00;1.67;;;0.70;;
28296;SDS011;62078;49.366;8.172;2023-08-06T12:32:26;3.17;;;0.50;;
28296;SDS011;62078;49.366;8.172;2023-08-06T12:34:52;2.03;;;0.50;;
28296;SDS011;62078;49.366;8.172;2023-08-06T12:37:17;3.30;;;0.80;;
28296;SDS011;62078;49.366;8.172;2023-08-06T12:39:43;3.63;;;0.63;;
28296;SDS011;62078;49.366;8.172;2023-08-06T12:42:09;3.60;;;0.70;;
28296;SDS011;62078;49.366;8.172;2023-08-06T12:44:35;2.00;;;0.55;;
28296;SDS011;62078;49.366;8.172;2023-08-06T12:47:01;4.13;;;0.57;;
28296;SDS011;62078;49.366;8.172;2023-08-06T12:49:27;1.85;;;0.55;;
28296;SDS011;62078;49.366;8.172;2023-08-06T12:51:54;1.65;;;0.57;;
28296;SDS011;62078;49.366;8.172;2023-08-06T12:54:22;5.88;;;0.70;;
28296;SDS011;62078;49.366;8.172;2023-08-06T12:56:48;2.78;;;0.55;;
28296;SDS011;62078;49.366;8.172;2023-08-06T12:59:14;7.90;;;0.70;;
28296;SDS011;62078;49.366;8.172;2023-08-06T13:01:42;1.80;;;0.50;;
28296;SDS011;62078;49.366;8.172;2023-08-06T13:04:08;1.63;;;0.70;;
28296;SDS011;62078;49.366;8.172;2023-08-06T13:06:34;3.03;;;0.70;;
28296;SDS011;62078;49.366;8.172;2023-08-06T13:09:07;2.00;;;0.45;;
28296;SDS011;62078;49.366;8.172;2023-08-06T13:11:33;0.88;;;0.50;;
28296;SDS011;62078;49.366;8.172;2023-08-06T13:14:04;1.85;;;0.50;;
28296;SDS011;62078;49.366;8.172;2023-08-06T13:16:31;4.40;;;0.60;;
28296;SDS011;62078;49.366;8.172;2023-08-06T13:18:57;3.20;;;0.63;;
28296;SDS011;62078;49.366;8.172;2023-08-06T13:21:23;1.77;;;0.35;;
28296;SDS011;62078;49.366;8.172;2023-08-06T13:23:49;1.08;;;0.35;;
28296;SDS011;62078;49.366;8.172;2023-08-06T13:26:14;3.33;;;0.50;;
28296;SDS011;62078;49.366;8.172;2023-08-06T13:28:43;1.90;;;0.50;;
28296;SDS011;62078;49.366;8.172;2023-08-06T13:31:09;2.35;;;1.17;;
28296;SDS011;62078;49.366;8.172;2023-08-06T13:33:35;1.33;;;0.40;;
28296;SDS011;62078;49.366;8.172;2023-08-06T13:36:01;6.00;;;0.50;;
28296;SDS011;62078;49.366;8.172;2023-08-06T13:38:26;1.52;;;0.52;;
28296;SDS011;62078;49.366;8.172;2023-08-06T13:40:52;4.75;;;0.45;;
28296;SDS011;62078;49.366;8.172;2023-08-06T13:43:18;4.05;;;0.52;;
28296;SDS011;62078;49.366;8.172;2023-08-06T13:45:44;2.13;;;0.60;;
28296;SDS011;62078;49.366;8.172;2023-08-06T13:48:10;2.80;;;0.40;;
28296;SDS011;62078;49.366;8.172;2023-08-06T13:50:36;0.77;;;0.30;;
28296;SDS011;62078;49.366;8.172;2023-08-06T13:53:02;1.77;;;0.45;;
28296;SDS011;62078;49.366;8.172;2023-08-06T13:55:28;2.30;;;0.57;;
28296;SDS011;62078;49.366;8.172;2023-08-06T13:57:54;0.77;;;0.40;;
28296;SDS011;62078;49.366;8.172;2023-08-06T14:00:20;1.92;;;0.40;;
28296;SDS011;62078;49.366;8.172;2023-08-06T14:02:47;0.85;;;0.22;;
28296;SDS011;62078;49.366;8.172;2023-08-06T14:05:13;3.97;;;0.68;;
28296;SDS011;62078;49.366;8.172;2023-08-06T14:07:40;2.20;;;0.57;;
28296;SDS011;62078;49.366;8.172;2023-08-06T14:10:06;2.33;;;0.70;;
